createdAt,value
2019-03-29T11:21:40.181Z,0
2019-03-29T11:22:54.211Z,3.2
2019-03-29T11:24:09.592Z,2.9
2019-03-29T11:25:23.214Z,3.3
2019-03-29T11:26:37.637Z,5.9
2019-03-29T11:27:52.445Z,5.4
2019-03-29T12:13:15.258Z,0
2019-03-29T12:14:29.053Z,5.4
2019-03-29T12:15:42.808Z,4.2
2019-03-29T12:16:56.588Z,6
2019-03-29T12:18:10.352Z,5.2
2019-03-29T12:19:24.092Z,5.8
2019-03-29T12:20:37.872Z,5.1
2019-03-29T12:21:51.580Z,4.8
2019-03-29T12:23:05.344Z,5.1
2019-03-29T12:24:19.176Z,5
2019-03-29T12:25:32.967Z,5.2
2019-03-29T12:26:46.730Z,3.9
2019-03-29T12:28:01.475Z,4.6
2019-03-29T12:29:15.218Z,7
2019-03-29T12:30:32.086Z,5.4
2019-03-29T12:31:42.682Z,5.4
2019-03-29T12:32:56.496Z,4.8
2019-03-29T12:34:10.306Z,4.6
2019-03-29T12:35:25.059Z,7.1
2019-03-29T12:36:38.843Z,5.1
2019-03-29T12:37:53.625Z,5.4
2019-03-29T12:39:07.439Z,4.6
2019-03-29T12:40:21.305Z,5.6
2019-03-29T12:41:35.072Z,5.3
2019-03-29T12:42:48.844Z,5.2
2019-03-29T12:44:02.632Z,4.6
2019-03-29T12:45:16.396Z,4.6
2019-03-29T12:46:32.271Z,3.7
2019-03-29T12:47:43.921Z,4.6
2019-03-29T12:48:57.690Z,3.9
2019-03-29T12:50:11.473Z,4.4
2019-03-29T12:51:25.189Z,4.8
2019-03-29T12:52:38.979Z,3.9
2019-03-29T12:53:52.803Z,3.5
2019-03-29T12:55:06.590Z,3.1
2019-03-29T12:56:20.361Z,3.1
2019-03-29T12:57:34.166Z,4.3
2019-03-29T12:58:48.604Z,4.6
2019-03-29T13:00:02.372Z,3.7
2019-03-29T13:01:16.181Z,3.6
2019-03-29T13:02:29.948Z,3.8
2019-03-29T13:03:43.709Z,4.3
2019-03-29T13:04:57.823Z,4.3
2019-03-29T13:06:11.568Z,3.8
2019-03-29T13:07:25.330Z,3.4
2019-03-29T13:08:39.191Z,5.7
2019-03-29T13:09:52.923Z,4.4
2019-03-29T13:11:06.743Z,4.8
2019-03-29T13:12:20.499Z,3.3
2019-03-29T13:13:34.240Z,3.1
2019-03-29T13:14:48.005Z,3.8
2019-03-29T13:16:01.808Z,3.4
2019-03-29T13:17:16.595Z,3.7
2019-03-29T13:18:30.348Z,5.1
2019-03-29T13:19:44.129Z,4.6
2019-03-29T13:20:57.980Z,5.1
2019-03-29T13:22:11.751Z,3.9
2019-03-29T13:23:25.543Z,4.1
2019-03-29T13:24:39.343Z,3.1
2019-03-29T13:25:53.166Z,5
2019-03-29T13:27:06.909Z,4.6
2019-03-29T13:28:20.679Z,4.4
2019-03-29T13:29:34.513Z,4.3
2019-03-29T13:30:48.328Z,4
2019-03-29T13:32:02.091Z,4.2
2019-03-29T13:33:15.831Z,4.1
2019-03-29T13:34:29.545Z,4.4
2019-03-29T13:35:44.585Z,3
2019-03-29T13:36:57.087Z,4.5
2019-03-29T13:38:10.826Z,3.7
2019-03-29T13:39:25.566Z,4.1
2019-03-29T13:40:39.340Z,4.4
2019-03-29T13:41:53.110Z,4
2019-03-29T13:43:06.857Z,4.2
2019-03-29T13:44:23.915Z,4.4
2019-03-29T13:45:35.296Z,4.7
2019-03-29T13:46:50.034Z,3.7
2019-03-29T13:48:03.789Z,4.2
2019-03-29T13:49:17.553Z,5.1
2019-03-29T13:50:31.389Z,5.7
2019-03-29T13:51:45.161Z,5.1
2019-03-29T13:52:58.948Z,4.8
2019-03-29T13:54:12.715Z,6
2019-03-29T13:55:26.506Z,4.9
2019-03-29T13:56:40.237Z,4.4
2019-03-29T13:57:54.001Z,4.5
2019-03-29T13:59:07.771Z,4.2
2019-03-29T14:00:21.545Z,3.4
2019-03-29T14:01:35.313Z,3
2019-03-29T14:02:49.086Z,3.4
2019-03-29T14:04:02.819Z,3.1
2019-03-29T14:05:16.574Z,3.6
2019-03-29T14:06:30.312Z,3.4
2019-03-29T14:07:44.059Z,3.6
2019-03-29T14:08:57.813Z,3.4
2019-03-29T14:10:11.621Z,3.7
2019-03-29T14:11:25.356Z,3.3
2019-03-29T14:12:39.124Z,3.7
2019-03-29T14:13:52.889Z,2.8
2019-03-29T14:15:06.630Z,4.2
2019-03-29T14:16:20.426Z,4.7
2019-03-29T14:17:34.179Z,4.1
2019-03-29T14:18:47.911Z,4.5
2019-03-29T14:20:01.657Z,3.4
2019-03-29T14:21:15.418Z,3.8
2019-03-29T14:22:29.173Z,4
2019-03-29T14:23:42.912Z,3.4
2019-03-29T14:24:56.702Z,4.4
2019-03-29T14:26:10.502Z,4.8
2019-03-29T14:27:24.244Z,3.5
2019-03-29T14:28:38.018Z,4
2019-03-29T14:30:03.460Z,2.8
2019-03-29T14:31:06.508Z,4.4
2019-03-29T14:32:20.248Z,4.2
2019-03-29T14:33:34.007Z,3.5
2019-03-29T14:34:47.767Z,3.1
2019-03-29T14:36:01.528Z,4
2019-03-29T14:37:15.299Z,4
2019-03-29T14:38:29.053Z,3
2019-03-29T14:39:42.788Z,3.8
2019-03-29T14:40:56.557Z,3.1
2019-03-29T14:42:12.578Z,3.4
2019-03-29T14:43:24.044Z,3.9
2019-03-29T14:44:51.259Z,3.7
2019-03-29T14:45:52.527Z,5.1
2019-03-29T14:47:06.288Z,3.1
2019-03-29T14:48:20.079Z,3.4
2019-03-29T14:49:33.817Z,4.6
2019-03-29T14:50:47.562Z,3.6
2019-03-29T14:52:01.327Z,3.3
2019-03-29T14:53:15.074Z,3.2
2019-03-29T14:54:29.829Z,3.2
2019-03-29T14:55:43.654Z,3.7
2019-03-29T14:56:57.450Z,3.1
2019-03-29T14:58:12.292Z,3
2019-03-29T14:59:26.030Z,2
2019-03-29T15:00:39.826Z,3.7
2019-03-29T15:01:54.546Z,3.4
2019-03-29T15:03:08.344Z,3.3
2019-03-29T15:04:22.108Z,2.8
2019-03-29T15:05:35.840Z,3.2
2019-03-29T15:06:49.655Z,2.9
2019-03-29T15:08:03.457Z,3
2019-03-29T15:09:17.399Z,3.7
2019-03-29T15:10:31.111Z,3.8
2019-03-29T15:11:44.887Z,3.1
2019-03-29T15:12:59.631Z,3.7
2019-03-29T15:14:13.368Z,3.3
2019-03-29T15:15:27.083Z,2.9
2019-03-29T15:16:40.826Z,3.2
2019-03-29T15:17:54.660Z,4.8
2019-03-29T15:19:08.415Z,4.4
2019-03-29T15:20:22.155Z,4.3
2019-03-29T15:21:35.915Z,3.5
2019-03-29T15:22:49.650Z,3.3
2019-03-29T15:24:03.395Z,2.5
2019-03-29T15:25:17.134Z,4.1
2019-03-29T15:26:30.883Z,4.4
2019-03-29T15:27:44.611Z,2.6
2019-03-29T15:28:58.342Z,2.5
2019-03-29T15:30:12.062Z,3
2019-03-29T15:31:25.841Z,3.3
2019-03-29T15:32:39.636Z,3.5
2019-03-29T15:33:55.566Z,3.5
2019-03-29T15:35:07.162Z,4
2019-03-29T15:36:20.923Z,3.8
2019-03-29T15:37:34.663Z,3.1
2019-03-29T15:38:49.228Z,5.1
2019-03-29T15:40:03.002Z,4.3
2019-03-29T15:41:16.807Z,4.1
2019-03-29T15:42:30.564Z,2.5
2019-03-29T15:43:44.289Z,2.5
2019-03-29T15:44:58.038Z,3.3
2019-03-29T15:46:11.811Z,4.2
2019-03-29T15:47:25.545Z,3.1
2019-03-29T15:48:39.317Z,3.8
2019-03-29T15:49:56.067Z,4.1
2019-03-29T15:51:06.801Z,4.2
2019-03-29T15:52:20.585Z,3.8
2019-03-29T15:53:34.345Z,2.8
2019-03-29T15:54:48.122Z,4
2019-03-29T15:56:01.854Z,2.5
2019-03-29T15:57:15.647Z,3.3
2019-03-29T15:58:29.414Z,3.2
2019-03-29T15:59:43.189Z,2.7
2019-03-29T16:00:56.955Z,2.5
2019-03-29T16:02:10.725Z,3.3
2019-03-29T16:03:25.469Z,2.6
2019-03-29T16:04:39.230Z,2.9
2019-03-29T16:05:53.003Z,4.8
2019-03-29T16:07:06.765Z,2.7
2019-03-29T16:08:20.521Z,2.6
2019-03-29T16:09:34.266Z,3.7
2019-03-29T16:10:48.021Z,4.9
2019-03-29T16:12:01.751Z,3.9
2019-03-29T16:13:15.528Z,2.8
2019-03-29T16:14:29.290Z,2.3
2019-03-29T16:15:43.002Z,2.6
2019-03-29T16:16:56.774Z,1.8
2019-03-29T16:18:10.543Z,2.4
2019-03-29T16:19:24.301Z,2.6
2019-03-29T16:20:38.086Z,2
2019-03-29T16:21:51.906Z,2.2
2019-03-29T16:23:05.648Z,2.1
2019-03-29T16:24:19.390Z,3.2
2019-03-29T16:25:33.131Z,3.2
2019-03-29T16:26:46.875Z,2.1
2019-03-29T16:28:00.720Z,2.4
2019-03-29T16:29:14.479Z,2.2
2019-03-29T16:30:28.252Z,2.2
2019-03-29T16:31:42.013Z,2.9
2019-03-29T16:32:55.760Z,3.4
2019-03-29T16:34:09.563Z,3.1
2019-03-29T16:35:23.313Z,2.7
2019-03-29T16:36:37.062Z,3.3
2019-03-29T16:37:56.825Z,2.2
2019-03-29T16:39:04.504Z,3.7
2019-03-29T16:40:18.284Z,3.1
2019-03-29T16:41:32.011Z,3.6
2019-03-29T16:42:45.799Z,3.3
2019-03-29T16:43:59.548Z,3
2019-03-29T16:45:13.321Z,1.8
2019-03-29T16:46:27.076Z,2.9
2019-03-29T16:47:40.832Z,2
2019-03-29T16:48:54.583Z,2.4
2019-03-29T16:50:08.326Z,3.3
2019-03-29T16:51:22.076Z,4.4
2019-03-29T16:52:35.835Z,3.2
2019-03-29T16:53:49.610Z,3.3
2019-03-29T16:55:12.776Z,3.6
2019-03-29T16:56:18.104Z,3.9
2019-03-29T16:57:31.880Z,3
2019-03-29T16:58:45.688Z,3
2019-03-29T16:59:59.421Z,3.1
2019-03-29T17:01:14.150Z,3.9
2019-03-29T17:02:27.914Z,2
2019-03-29T17:03:41.659Z,2.4
2019-03-29T17:04:55.428Z,3.2
2019-03-29T17:06:09.188Z,1.9
2019-03-29T17:07:22.950Z,2.6
2019-03-29T17:08:36.721Z,2.9
2019-03-29T17:09:50.470Z,1.9
2019-03-29T17:11:04.198Z,2.6
2019-03-29T17:12:17.974Z,2.4
2019-03-29T17:13:31.758Z,2.6
2019-03-29T17:14:45.544Z,3.6
2019-03-29T17:16:01.883Z,3
2019-03-29T17:17:13.088Z,2.4
2019-03-29T17:18:29.323Z,3.4
2019-03-29T17:19:40.664Z,4
2019-03-29T17:20:54.537Z,2.8
2019-03-29T17:22:08.157Z,2.5
2019-03-29T17:23:21.957Z,3.6
2019-03-29T17:24:35.691Z,2.1
2019-03-29T17:25:50.462Z,3.2
2019-03-29T17:27:04.229Z,3.7
2019-03-29T17:28:17.991Z,1.9
2019-03-29T17:29:31.810Z,2.1
2019-03-29T17:30:45.567Z,2.3
2019-03-29T17:31:59.310Z,2.1
2019-03-29T17:33:13.070Z,3.7
2019-03-29T17:34:27.811Z,2.1
2019-03-29T17:35:41.539Z,2.2
2019-03-29T17:36:55.282Z,2.9
2019-03-29T17:38:09.061Z,2.3
2019-03-29T17:39:22.780Z,2.2
2019-03-29T17:40:36.516Z,3.2
2019-03-29T17:41:50.256Z,3.2
2019-03-29T17:43:04.027Z,2.3
2019-03-29T17:44:17.856Z,3
2019-03-29T17:45:31.643Z,1.5
2019-03-29T17:46:45.450Z,2.3
2019-03-29T17:47:59.286Z,3.6
2019-03-29T17:49:13.088Z,1.8
2019-03-29T17:50:26.839Z,2.2
2019-03-29T17:51:40.642Z,2.9
2019-03-29T17:52:54.422Z,2.6
2019-03-29T17:54:08.240Z,2.2
2019-03-29T17:55:21.994Z,1.7
2019-03-29T17:56:36.784Z,2.1
2019-03-29T17:57:50.573Z,2.5
2019-03-29T17:59:04.390Z,2.6
2019-03-29T18:00:18.162Z,2
2019-03-29T18:01:31.926Z,2.9
2019-03-29T18:02:46.652Z,1.6
2019-03-29T18:04:00.432Z,3.3
2019-03-29T18:05:14.208Z,2
2019-03-29T18:06:27.956Z,2.4
2019-03-29T18:07:41.720Z,1.5
2019-03-29T18:08:55.462Z,2.7
2019-03-29T18:10:09.230Z,1.9
2019-03-29T18:11:23.012Z,1.6
2019-03-29T18:12:36.752Z,2.9
2019-03-29T18:13:50.493Z,1.6
2019-03-29T18:15:04.281Z,2.1
2019-03-29T18:16:29.827Z,2.3
2019-03-29T18:17:32.747Z,1.8
2019-03-29T18:18:46.507Z,2.4
2019-03-29T18:20:00.380Z,2
2019-03-29T18:21:14.167Z,1.6
2019-03-29T18:22:28.012Z,2
2019-03-29T18:23:41.802Z,2.7
2019-03-29T18:24:55.566Z,2.3
2019-03-29T18:26:09.326Z,2.9
2019-03-29T18:27:23.108Z,3
2019-03-29T18:28:38.076Z,2.2
2019-03-29T18:29:50.563Z,1.5
2019-03-29T18:31:04.335Z,2.1
2019-03-29T18:32:18.089Z,2.2
2019-03-29T18:33:31.825Z,1.8
2019-03-29T18:34:45.760Z,1.9
2019-03-29T18:35:59.510Z,2.7
2019-03-29T18:37:13.331Z,2.1
2019-03-29T18:38:27.083Z,3.3
2019-03-29T18:39:40.896Z,2.1
2019-03-29T18:40:54.693Z,1.6
2019-03-29T18:42:08.504Z,1.7
2019-03-29T18:43:22.275Z,3
2019-03-29T18:44:36.032Z,1.8
2019-03-29T18:45:49.853Z,2.6
2019-03-29T18:47:03.624Z,3.4
2019-03-29T18:48:17.424Z,2
2019-03-29T18:49:31.172Z,2.6
2019-03-29T18:50:45.034Z,2.1
2019-03-29T18:51:58.796Z,1.5
2019-03-29T18:53:12.685Z,2.8
2019-03-29T18:54:26.361Z,3.9
2019-03-29T18:55:40.118Z,1.8
2019-03-29T18:56:54.411Z,2.4
2019-03-29T18:58:08.172Z,2.9
2019-03-29T18:59:21.920Z,2.6
2019-03-29T19:00:35.703Z,2.3
2019-03-29T19:01:49.505Z,2.4
2019-03-29T19:03:03.254Z,2.3
2019-03-29T19:04:17.984Z,2.1
2019-03-29T19:05:31.781Z,1.7
2019-03-29T19:06:45.573Z,2.5
2019-03-29T19:07:59.341Z,2.1
2019-03-29T19:09:13.150Z,2.6
2019-03-29T19:10:26.955Z,2.2
2019-03-29T19:11:40.713Z,3.5
2019-03-29T19:12:54.488Z,3
2019-03-29T19:14:08.262Z,3.6
2019-03-29T19:15:22.185Z,3.4
2019-03-29T19:16:35.871Z,3.9
2019-03-29T19:17:49.610Z,3.3
2019-03-29T19:19:09.638Z,3.1
2019-03-29T19:20:27.040Z,2.6
2019-03-29T19:21:33.150Z,3.1
2019-03-29T19:22:47.281Z,3.5
2019-03-29T19:24:00.732Z,2.6
2019-03-29T19:25:14.511Z,3.9
2019-03-29T19:26:28.264Z,3.6
2019-03-29T19:27:42.009Z,2.8
2019-03-29T19:28:55.780Z,2.3
2019-03-29T19:30:09.561Z,3.6
2019-03-29T19:31:23.344Z,3
2019-03-29T19:32:37.095Z,2.2
2019-03-29T19:33:50.870Z,3.1
2019-03-29T19:35:04.596Z,3.3
2019-03-29T19:36:18.404Z,2.7
2019-03-29T19:37:32.151Z,3.7
2019-03-29T19:38:45.985Z,3.4
2019-03-29T19:39:59.742Z,2.9
2019-03-29T19:41:13.509Z,3.6
2019-03-29T19:42:27.275Z,4.2
2019-03-29T19:43:41.034Z,3.2
2019-03-29T19:44:54.810Z,3.1
2019-03-29T19:46:08.572Z,2.5
2019-03-29T19:47:22.355Z,3.9
2019-03-29T19:48:36.132Z,3
2019-03-29T19:49:49.892Z,3.2
2019-03-29T19:51:03.697Z,4.3
2019-03-29T19:52:17.513Z,5.5
2019-03-29T19:53:34.309Z,3.8
2019-03-29T19:54:46.056Z,3.5
2019-03-29T19:55:59.903Z,3.3
2019-03-29T19:57:13.662Z,4.3
2019-03-29T19:58:27.468Z,3.8
2019-03-29T19:59:41.240Z,4.2
2019-03-29T20:00:55.974Z,4.9
2019-03-29T20:02:09.883Z,3.9
2019-03-29T20:03:23.633Z,3.5
2019-03-29T20:04:37.394Z,3.5
2019-03-29T20:05:51.155Z,4.1
2019-03-29T20:07:04.974Z,4.1
2019-03-29T20:08:18.756Z,3.3
2019-03-29T20:09:32.503Z,3.7
2019-03-29T20:10:47.263Z,3.4
2019-03-29T20:12:01.056Z,4.6
2019-03-29T20:13:14.819Z,4.1
2019-03-29T20:14:28.550Z,3.4
2019-03-29T20:15:42.312Z,3.5
2019-03-29T20:16:56.066Z,3.6
2019-03-29T20:18:09.835Z,3.9
2019-03-29T20:19:23.604Z,5.3
2019-03-29T20:20:37.409Z,3.8
2019-03-29T20:21:51.158Z,3.7
2019-03-29T20:23:04.930Z,3.3
2019-03-29T20:24:18.707Z,3.2
2019-03-29T20:25:32.477Z,4.6
2019-03-29T20:26:46.262Z,3.1
2019-03-29T20:28:00.062Z,3.3
2019-03-29T20:29:13.834Z,2.9
2019-03-29T20:30:27.604Z,3.5
2019-03-29T20:31:41.467Z,3.9
2019-03-29T20:32:56.214Z,3.6
2019-03-29T20:34:10.007Z,3.4
2019-03-29T20:35:23.791Z,3.5
2019-03-29T20:36:37.572Z,3.4
2019-03-29T20:37:51.403Z,3.6
2019-03-29T20:39:05.151Z,2.9
2019-03-29T20:40:18.911Z,3.6
2019-03-29T20:41:32.708Z,2.9
2019-03-29T20:42:46.521Z,3.7
2019-03-29T20:44:00.282Z,3.1
2019-03-29T20:45:14.069Z,3
2019-03-29T20:46:27.900Z,4.2
2019-03-29T20:47:42.520Z,2.9
2019-03-29T20:48:56.361Z,3.4
2019-03-29T20:50:10.139Z,3.7
2019-03-29T20:51:23.915Z,3.2
2019-03-29T20:52:37.679Z,4.5
2019-03-29T20:53:51.462Z,3.8
2019-03-29T20:55:05.255Z,3.3
2019-03-29T20:56:18.982Z,3.4
2019-03-29T20:57:32.757Z,2.4
2019-03-29T20:58:46.531Z,2.9
2019-03-29T21:00:00.383Z,4.2
2019-03-29T21:01:14.133Z,4.4
2019-03-29T21:02:27.945Z,4.8
2019-03-29T21:03:41.720Z,3.2
2019-03-29T21:04:55.471Z,2.8
2019-03-29T21:06:09.230Z,4.9
2019-03-29T21:07:22.995Z,5.4
2019-03-29T21:08:36.791Z,4.7
2019-03-29T21:09:50.562Z,3.5
2019-03-29T21:11:04.362Z,3.5
2019-03-29T21:12:18.197Z,3.6
2019-03-29T21:13:31.999Z,3.1
2019-03-29T21:14:45.773Z,6.6
2019-03-29T21:15:59.572Z,5.3
2019-03-29T21:17:13.392Z,3.8
2019-03-29T21:18:27.161Z,4.5
2019-03-29T21:19:40.976Z,4.9
2019-03-29T21:20:54.716Z,4
2019-03-29T21:22:08.483Z,4.8
2019-03-29T21:23:22.295Z,5
2019-03-29T21:24:36.026Z,3.9
2019-03-29T21:25:49.845Z,4
2019-03-29T21:27:03.587Z,4.1
2019-03-29T21:28:17.359Z,3.4
2019-03-29T21:29:31.097Z,3.7
2019-03-29T21:30:44.870Z,4.4
2019-03-29T21:31:58.710Z,4.4
2019-03-29T21:33:12.517Z,4.5
2019-03-29T21:34:26.314Z,4.8
2019-03-29T21:35:40.027Z,4
2019-03-29T21:36:53.803Z,3.4
2019-03-29T21:38:07.608Z,4.6
2019-03-29T21:39:22.343Z,4.2
2019-03-29T21:40:37.082Z,5.4
2019-03-29T21:41:50.869Z,4.7
2019-03-29T21:43:04.622Z,4.3
2019-03-29T21:44:18.435Z,4.1
2019-03-29T21:45:32.212Z,4.4
2019-03-29T21:46:45.983Z,7.4
2019-03-29T21:48:04.798Z,4.4
2019-03-29T21:49:14.483Z,5.7
2019-03-29T21:50:28.266Z,4.3
2019-03-29T21:51:42.031Z,4.9
2019-03-29T21:52:55.851Z,4.4
2019-03-29T21:54:09.609Z,5.5
2019-03-29T21:55:23.386Z,4.8
2019-03-29T21:56:37.190Z,4.6
2019-03-29T21:57:51.979Z,5.2
2019-03-29T21:59:05.706Z,5.1
2019-03-29T22:00:19.493Z,4.7
2019-03-29T22:01:33.261Z,4.5
2019-03-29T22:02:47.370Z,4.4
2019-03-29T22:04:00.893Z,4.3
2019-03-29T22:05:14.651Z,4.5
2019-03-29T22:06:28.410Z,4.3
2019-03-29T22:07:42.254Z,6
2019-03-29T22:08:56.028Z,3.5
2019-03-29T22:10:09.801Z,4.4
2019-03-29T22:11:23.575Z,6
2019-03-29T22:12:37.373Z,4.7
2019-03-29T22:13:51.122Z,5.5
2019-03-29T22:15:04.881Z,4.1
2019-03-29T22:16:18.629Z,5.5
2019-03-29T22:17:32.410Z,4.3
2019-03-29T22:18:46.209Z,5.5
2019-03-29T22:19:59.964Z,4.3
2019-03-29T22:21:13.750Z,4.9
2019-03-29T22:22:27.516Z,4.5
2019-03-29T22:23:41.327Z,3.7
2019-03-29T22:24:55.071Z,3.6
2019-03-29T22:26:08.828Z,4.6
2019-03-29T22:27:22.583Z,5.4
2019-03-29T22:28:36.445Z,5.7
2019-03-29T22:29:50.191Z,4.4
2019-03-29T22:31:03.946Z,7
2019-03-29T22:32:17.714Z,5
2019-03-29T22:33:31.539Z,6.3
2019-03-29T22:34:45.324Z,4.4
2019-03-29T22:35:59.092Z,4.5
2019-03-29T22:37:12.856Z,4
2019-03-29T22:38:26.643Z,5.1
2019-03-29T22:39:40.454Z,5.4
2019-03-29T22:40:54.249Z,4.5
2019-03-29T22:42:08.039Z,5.6
2019-03-29T22:43:21.848Z,5.3
2019-03-29T22:44:35.605Z,4.8
2019-03-29T22:45:49.368Z,4.7
2019-03-29T22:47:03.117Z,4.6
2019-03-29T22:48:16.938Z,4.8
2019-03-29T22:49:30.720Z,3.9
2019-03-29T22:50:44.489Z,5.2
2019-03-29T22:51:58.248Z,4.7
2019-03-29T22:53:12.023Z,5.2
2019-03-29T22:54:25.770Z,6.3
2019-03-29T22:55:39.537Z,5.2
2019-03-29T22:56:54.304Z,4.3
2019-03-29T22:58:08.034Z,5.8
2019-03-29T22:59:21.825Z,4.8
2019-03-29T23:00:35.615Z,5.4
2019-03-29T23:01:49.370Z,5.5
2019-03-29T23:03:03.140Z,5.4
2019-03-29T23:04:16.933Z,5.6
2019-03-29T23:05:30.775Z,5.5
2019-03-29T23:06:44.534Z,9.9
2019-03-29T23:07:58.293Z,5.2
2019-03-29T23:09:12.334Z,5.7
2019-03-29T23:10:26.092Z,5.8
2019-03-29T23:11:39.919Z,5.6
2019-03-29T23:12:53.641Z,5.2
2019-03-29T23:14:07.419Z,5
2019-03-29T23:15:21.242Z,4.3
2019-03-29T23:16:35.003Z,5.7
2019-03-29T23:17:48.780Z,5.7
2019-03-29T23:19:06.568Z,5.5
2019-03-29T23:20:16.304Z,5.5
2019-03-29T23:21:30.346Z,5.3
2019-03-29T23:22:44.112Z,5.4
2019-03-29T23:23:57.883Z,6.9
2019-03-29T23:25:11.642Z,5.6
2019-03-29T23:26:25.450Z,5
2019-03-29T23:27:39.166Z,4.5
2019-03-29T23:28:52.926Z,5
2019-03-29T23:30:06.713Z,5.8
2019-03-29T23:31:20.464Z,5
2019-03-29T23:32:34.219Z,5.2
2019-03-29T23:33:48.025Z,5.8
2019-03-29T23:35:01.783Z,5.4
2019-03-29T23:36:15.554Z,5.7
2019-03-29T23:37:29.338Z,4.8
2019-03-29T23:38:43.095Z,5.8
2019-03-29T23:39:56.858Z,7.9
2019-03-29T23:41:10.675Z,5.5
2019-03-29T23:42:24.428Z,4.7
2019-03-29T23:43:38.204Z,6.4
2019-03-29T23:44:51.976Z,5.5
2019-03-29T23:46:05.747Z,5.2
2019-03-29T23:47:19.500Z,5.7
2019-03-29T23:48:33.304Z,5.4
2019-03-29T23:49:47.203Z,5.2
2019-03-29T23:51:00.801Z,5.5
2019-03-29T23:52:14.575Z,5.2
2019-03-29T23:53:28.302Z,5.4
2019-03-29T23:54:42.053Z,5.3
2019-03-29T23:55:55.841Z,4.9
2019-03-29T23:57:09.603Z,6
2019-03-29T23:58:23.364Z,6
2019-03-29T23:59:37.123Z,5.1
